Search METAR Data

METAR Data for ENKB:

ENKB 301320Z 36010KT 330V050 CAVOK 16/10 Q1010 RMK WIND 745FT 01013KT